sensor_id;sensor_type;location;lat;lon;timestamp;temperature;humidity
37460;DHT22;23318;50.966;5.284;2023-05-21T00:00:49;15.60;99.90
37460;DHT22;23318;50.966;5.284;2023-05-21T00:03:16;15.50;99.90
37460;DHT22;23318;50.966;5.284;2023-05-21T00:05:42;15.60;99.90
37460;DHT22;23318;50.966;5.284;2023-05-21T00:08:09;15.60;99.90
37460;DHT22;23318;50.966;5.284;2023-05-21T00:10:35;15.60;99.90
37460;DHT22;23318;50.966;5.284;2023-05-21T00:13:01;15.60;99.90
37460;DHT22;23318;50.966;5.284;2023-05-21T00:15:26;15.60;99.90
37460;DHT22;23318;50.966;5.284;2023-05-21T00:17:52;15.50;99.90
37460;DHT22;23318;50.966;5.284;2023-05-21T00:20:18;15.40;99.90
37460;DHT22;23318;50.966;5.284;2023-05-21T00:22:44;15.20;99.90
37460;DHT22;23318;50.966;5.284;2023-05-21T00:25:10;15.20;99.90
37460;DHT22;23318;50.966;5.284;2023-05-21T00:27:36;15.20;99.90
37460;DHT22;23318;50.966;5.284;2023-05-21T00:30:03;15.20;99.90
37460;DHT22;23318;50.966;5.284;2023-05-21T00:32:29;15.10;99.90
37460;DHT22;23318;50.966;5.284;2023-05-21T00:34:54;15.20;99.90
37460;DHT22;23318;50.966;5.284;2023-05-21T00:37:20;15.20;99.90
37460;DHT22;23318;50.966;5.284;2023-05-21T00:39:49;15.10;99.90
37460;DHT22;23318;50.966;5.284;2023-05-21T00:42:16;15.10;99.90
37460;DHT22;23318;50.966;5.284;2023-05-21T00:44:43;15.10;99.90
37460;DHT22;23318;50.966;5.284;2023-05-21T00:47:11;15.20;99.90
37460;DHT22;23318;50.966;5.284;2023-05-21T00:49:37;15.20;99.90
37460;DHT22;23318;50.966;5.284;2023-05-21T00:52:04;15.10;99.90
37460;DHT22;23318;50.966;5.284;2023-05-21T00:54:30;15.10;99.90
37460;DHT22;23318;50.966;5.284;2023-05-21T00:56:56;15.00;99.90
37460;DHT22;23318;50.966;5.284;2023-05-21T00:59:22;15.10;99.90
37460;DHT22;23318;50.966;5.284;2023-05-21T01:01:48;15.00;99.90
37460;DHT22;23318;50.966;5.284;2023-05-21T01:04:22;14.90;99.90
37460;DHT22;23318;50.966;5.284;2023-05-21T01:06:47;15.00;99.90
37460;DHT22;23318;50.966;5.284;2023-05-21T01:09:13;15.00;99.90
37460;DHT22;23318;50.966;5.284;2023-05-21T01:11:45;15.00;99.90
37460;DHT22;23318;50.966;5.284;2023-05-21T01:14:12;14.90;99.90
37460;DHT22;23318;50.966;5.284;2023-05-21T01:16:41;15.00;99.90
37460;DHT22;23318;50.966;5.284;2023-05-21T01:19:11;14.90;99.90
37460;DHT22;23318;50.966;5.284;2023-05-21T01:21:56;14.90;99.90
37460;DHT22;23318;50.966;5.284;2023-05-21T01:24:24;15.00;99.90
37460;DHT22;23318;50.966;5.284;2023-05-21T01:26:50;15.00;99.90
37460;DHT22;23318;50.966;5.284;2023-05-21T01:29:16;15.00;99.90
37460;DHT22;23318;50.966;5.284;2023-05-21T01:31:55;15.00;99.90
37460;DHT22;23318;50.966;5.284;2023-05-21T01:34:29;15.00;99.90
37460;DHT22;23318;50.966;5.284;2023-05-21T01:37:29;15.00;99.90
37460;DHT22;23318;50.966;5.284;2023-05-21T01:39:58;15.00;99.90
37460;DHT22;23318;50.966;5.284;2023-05-21T01:42:27;14.90;99.90
37460;DHT22;23318;50.966;5.284;2023-05-21T01:44:54;14.70;99.90
37460;DHT22;23318;50.966;5.284;2023-05-21T01:47:24;14.70;99.90
37460;DHT22;23318;50.966;5.284;2023-05-21T01:49:51;14.60;99.90
37460;DHT22;23318;50.966;5.284;2023-05-21T01:52:17;14.70;99.90
37460;DHT22;23318;50.966;5.284;2023-05-21T01:54:43;14.60;99.90
37460;DHT22;23318;50.966;5.284;2023-05-21T01:57:08;14.50;99.90
37460;DHT22;23318;50.966;5.284;2023-05-21T01:59:34;14.50;99.90
37460;DHT22;23318;50.966;5.284;2023-05-21T02:02:00;14.60;99.90
37460;DHT22;23318;50.966;5.284;2023-05-21T02:04:26;14.50;99.90
37460;DHT22;23318;50.966;5.284;2023-05-21T02:06:52;14.50;99.90
37460;DHT22;23318;50.966;5.284;2023-05-21T02:09:19;14.60;99.90
37460;DHT22;23318;50.966;5.284;2023-05-21T02:11:45;14.60;99.90
37460;DHT22;23318;50.966;5.284;2023-05-21T02:14:10;14.60;99.90
37460;DHT22;23318;50.966;5.284;2023-05-21T02:16:38;14.60;99.90
37460;DHT22;23318;50.966;5.284;2023-05-21T02:19:04;14.60;99.90
37460;DHT22;23318;50.966;5.284;2023-05-21T02:21:31;14.50;99.90
37460;DHT22;23318;50.966;5.284;2023-05-21T02:23:56;14.40;99.90
37460;DHT22;23318;50.966;5.284;2023-05-21T02:26:22;14.50;99.90
37460;DHT22;23318;50.966;5.284;2023-05-21T02:28:48;14.40;99.90
37460;DHT22;23318;50.966;5.284;2023-05-21T02:31:13;14.50;99.90
37460;DHT22;23318;50.966;5.284;2023-05-21T02:33:40;14.60;99.90
37460;DHT22;23318;50.966;5.284;2023-05-21T02:36:06;14.60;99.90
37460;DHT22;23318;50.966;5.284;2023-05-21T02:38:38;14.60;99.90
37460;DHT22;23318;50.966;5.284;2023-05-21T02:41:05;14.60;99.90
37460;DHT22;23318;50.966;5.284;2023-05-21T02:43:30;14.60;99.90
37460;DHT22;23318;50.966;5.284;2023-05-21T02:45:56;14.50;99.90
37460;DHT22;23318;50.966;5.284;2023-05-21T02:48:22;14.50;99.90
37460;DHT22;23318;50.966;5.284;2023-05-21T02:50:47;14.50;99.90
37460;DHT22;23318;50.966;5.284;2023-05-21T02:53:13;14.50;99.90
37460;DHT22;23318;50.966;5.284;2023-05-21T02:55:39;14.50;99.90
37460;DHT22;23318;50.966;5.284;2023-05-21T02:58:05;14.60;99.90
37460;DHT22;23318;50.966;5.284;2023-05-21T03:00:30;14.60;99.90
37460;DHT22;23318;50.966;5.284;2023-05-21T03:02:56;14.60;99.90
37460;DHT22;23318;50.966;5.284;2023-05-21T03:05:22;14.50;99.90
37460;DHT22;23318;50.966;5.284;2023-05-21T03:07:47;14.50;99.90
37460;DHT22;23318;50.966;5.284;2023-05-21T03:10:13;14.50;99.90
37460;DHT22;23318;50.966;5.284;2023-05-21T03:12:39;14.40;99.90
37460;DHT22;23318;50.966;5.284;2023-05-21T03:15:05;14.30;99.90
37460;DHT22;23318;50.966;5.284;2023-05-21T03:17:30;14.40;99.90
37460;DHT22;23318;50.966;5.284;2023-05-21T03:19:56;14.40;99.90
37460;DHT22;23318;50.966;5.284;2023-05-21T03:22:22;14.40;99.90
37460;DHT22;23318;50.966;5.284;2023-05-21T03:24:47;14.40;99.90
37460;DHT22;23318;50.966;5.284;2023-05-21T03:27:13;14.20;99.90
37460;DHT22;23318;50.966;5.284;2023-05-21T03:29:39;14.10;99.90
37460;DHT22;23318;50.966;5.284;2023-05-21T03:32:04;14.10;99.90
37460;DHT22;23318;50.966;5.284;2023-05-21T03:34:30;14.00;99.90
37460;DHT22;23318;50.966;5.284;2023-05-21T03:36:58;13.90;99.90
37460;DHT22;23318;50.966;5.284;2023-05-21T03:39:24;13.80;99.90
37460;DHT22;23318;50.966;5.284;2023-05-21T03:41:50;13.60;99.90
37460;DHT22;23318;50.966;5.284;2023-05-21T03:44:16;13.60;99.90
37460;DHT22;23318;50.966;5.284;2023-05-21T03:46:41;13.70;99.90
37460;DHT22;23318;50.966;5.284;2023-05-21T03:49:09;13.60;99.90
37460;DHT22;23318;50.966;5.284;2023-05-21T03:51:35;13.60;99.90
37460;DHT22;23318;50.966;5.284;2023-05-21T03:54:02;13.60;99.90
37460;DHT22;23318;50.966;5.284;2023-05-21T03:56:28;13.60;99.90
37460;DHT22;23318;50.966;5.284;2023-05-21T03:58:54;13.60;99.90
37460;DHT22;23318;50.966;5.284;2023-05-21T04:01:20;13.70;99.90
37460;DHT22;23318;50.966;5.284;2023-05-21T04:03:45;13.70;99.90
37460;DHT22;23318;50.966;5.284;2023-05-21T04:06:11;13.80;99.90
37460;DHT22;23318;50.966;5.284;2023-05-21T04:08:37;13.80;99.90
37460;DHT22;23318;50.966;5.284;2023-05-21T04:11:03;13.80;99.90
37460;DHT22;23318;50.966;5.284;2023-05-21T04:13:28;13.80;99.90
37460;DHT22;23318;50.966;5.284;2023-05-21T04:15:54;13.80;99.90
37460;DHT22;23318;50.966;5.284;2023-05-21T04:18:20;13.80;99.90
37460;DHT22;23318;50.966;5.284;2023-05-21T04:20:48;13.80;99.90
37460;DHT22;23318;50.966;5.284;2023-05-21T04:23:14;13.80;99.90
37460;DHT22;23318;50.966;5.284;2023-05-21T04:25:40;13.90;99.90
37460;DHT22;23318;50.966;5.284;2023-05-21T04:28:06;13.70;99.90
37460;DHT22;23318;50.966;5.284;2023-05-21T04:30:32;13.60;99.90
37460;DHT22;23318;50.966;5.284;2023-05-21T04:33:01;13.70;99.90
37460;DHT22;23318;50.966;5.284;2023-05-21T04:35:27;13.80;99.90
37460;DHT22;23318;50.966;5.284;2023-05-21T04:37:52;13.70;99.90
37460;DHT22;23318;50.966;5.284;2023-05-21T04:40:20;13.50;99.90
37460;DHT22;23318;50.966;5.284;2023-05-21T04:42:49;13.80;99.90
37460;DHT22;23318;50.966;5.284;2023-05-21T04:45:15;13.60;99.90
37460;DHT22;23318;50.966;5.284;2023-05-21T04:47:42;13.80;99.90
37460;DHT22;23318;50.966;5.284;2023-05-21T04:50:08;14.00;99.90
37460;DHT22;23318;50.966;5.284;2023-05-21T04:52:35;14.00;99.90
37460;DHT22;23318;50.966;5.284;2023-05-21T04:55:01;14.00;99.90
37460;DHT22;23318;50.966;5.284;2023-05-21T04:57:27;14.00;99.90
37460;DHT22;23318;50.966;5.284;2023-05-21T04:59:54;14.00;99.90
37460;DHT22;23318;50.966;5.284;2023-05-21T05:02:19;14.00;99.90
37460;DHT22;23318;50.966;5.284;2023-05-21T05:04:45;14.20;99.90
37460;DHT22;23318;50.966;5.284;2023-05-21T05:07:11;14.40;99.90
37460;DHT22;23318;50.966;5.284;2023-05-21T05:09:36;14.40;99.90
37460;DHT22;23318;50.966;5.284;2023-05-21T05:12:02;14.40;99.90
37460;DHT22;23318;50.966;5.284;2023-05-21T05:14:28;14.40;99.90
37460;DHT22;23318;50.966;5.284;2023-05-21T05:16:54;14.40;99.90
37460;DHT22;23318;50.966;5.284;2023-05-21T05:19:24;14.40;99.90
37460;DHT22;23318;50.966;5.284;2023-05-21T05:21:49;14.50;99.90
37460;DHT22;23318;50.966;5.284;2023-05-21T05:24:15;14.60;99.90
37460;DHT22;23318;50.966;5.284;2023-05-21T05:26:41;14.60;99.90
37460;DHT22;23318;50.966;5.284;2023-05-21T05:29:07;14.70;99.90
37460;DHT22;23318;50.966;5.284;2023-05-21T05:31:32;14.80;99.90
37460;DHT22;23318;50.966;5.284;2023-05-21T05:33:58;14.80;99.90
37460;DHT22;23318;50.966;5.284;2023-05-21T05:36:24;14.90;99.90
37460;DHT22;23318;50.966;5.284;2023-05-21T05:38:50;15.00;99.90
37460;DHT22;23318;50.966;5.284;2023-05-21T05:41:16;15.10;99.90
37460;DHT22;23318;50.966;5.284;2023-05-21T05:43:42;15.00;99.90
37460;DHT22;23318;50.966;5.284;2023-05-21T05:46:08;15.10;99.90
37460;DHT22;23318;50.966;5.284;2023-05-21T05:48:33;15.10;99.90
37460;DHT22;23318;50.966;5.284;2023-05-21T05:50:59;15.30;99.90
37460;DHT22;23318;50.966;5.284;2023-05-21T05:53:25;15.40;99.90
37460;DHT22;23318;50.966;5.284;2023-05-21T05:55:51;15.40;99.90
37460;DHT22;23318;50.966;5.284;2023-05-21T05:58:17;15.50;99.90
37460;DHT22;23318;50.966;5.284;2023-05-21T06:00:42;15.50;99.90
37460;DHT22;23318;50.966;5.284;2023-05-21T06:03:08;15.50;99.90
37460;DHT22;23318;50.966;5.284;2023-05-21T06:05:34;15.50;99.90
37460;DHT22;23318;50.966;5.284;2023-05-21T06:08:00;15.60;99.90
37460;DHT22;23318;50.966;5.284;2023-05-21T06:10:25;15.70;99.90
37460;DHT22;23318;50.966;5.284;2023-05-21T06:12:51;15.60;99.90
37460;DHT22;23318;50.966;5.284;2023-05-21T06:15:17;15.70;99.90
37460;DHT22;23318;50.966;5.284;2023-05-21T06:17:44;15.80;99.90
37460;DHT22;23318;50.966;5.284;2023-05-21T06:20:10;15.90;99.90
37460;DHT22;23318;50.966;5.284;2023-05-21T06:22:36;15.90;99.90
37460;DHT22;23318;50.966;5.284;2023-05-21T06:25:02;16.10;99.90
37460;DHT22;23318;50.966;5.284;2023-05-21T06:27:28;16.00;99.90
37460;DHT22;23318;50.966;5.284;2023-05-21T06:29:54;16.30;99.90
37460;DHT22;23318;50.966;5.284;2023-05-21T06:32:21;16.50;99.90
37460;DHT22;23318;50.966;5.284;2023-05-21T06:34:47;16.60;99.90
37460;DHT22;23318;50.966;5.284;2023-05-21T06:37:17;16.50;99.90
37460;DHT22;23318;50.966;5.284;2023-05-21T06:39:43;16.40;99.90
37460;DHT22;23318;50.966;5.284;2023-05-21T06:42:09;16.50;99.90
37460;DHT22;23318;50.966;5.284;2023-05-21T06:44:35;16.30;99.90
37460;DHT22;23318;50.966;5.284;2023-05-21T06:47:01;16.30;99.90
37460;DHT22;23318;50.966;5.284;2023-05-21T06:49:26;16.50;99.90
37460;DHT22;23318;50.966;5.284;2023-05-21T06:51:52;16.80;99.90
37460;DHT22;23318;50.966;5.284;2023-05-21T06:54:18;16.80;99.90
37460;DHT22;23318;50.966;5.284;2023-05-21T06:56:43;16.70;99.90
37460;DHT22;23318;50.966;5.284;2023-05-21T06:59:09;16.80;99.90
37460;DHT22;23318;50.966;5.284;2023-05-21T07:01:35;16.60;99.90
37460;DHT22;23318;50.966;5.284;2023-05-21T07:04:01;16.50;99.90
37460;DHT22;23318;50.966;5.284;2023-05-21T07:06:26;16.50;99.90
37460;DHT22;23318;50.966;5.284;2023-05-21T07:08:52;16.50;99.90
37460;DHT22;23318;50.966;5.284;2023-05-21T07:11:18;16.50;99.90
37460;DHT22;23318;50.966;5.284;2023-05-21T07:13:43;16.50;99.90
37460;DHT22;23318;50.966;5.284;2023-05-21T07:16:09;16.50;99.90
37460;DHT22;23318;50.966;5.284;2023-05-21T07:18:35;16.80;99.90
37460;DHT22;23318;50.966;5.284;2023-05-21T07:21:00;17.10;99.90
37460;DHT22;23318;50.966;5.284;2023-05-21T07:23:26;17.50;99.90
37460;DHT22;23318;50.966;5.284;2023-05-21T07:25:52;17.80;99.90
37460;DHT22;23318;50.966;5.284;2023-05-21T07:28:18;17.90;99.90
37460;DHT22;23318;50.966;5.284;2023-05-21T07:30:44;18.10;99.90
37460;DHT22;23318;50.966;5.284;2023-05-21T07:33:10;18.00;99.90
37460;DHT22;23318;50.966;5.284;2023-05-21T07:35:37;17.90;99.90
37460;DHT22;23318;50.966;5.284;2023-05-21T07:38:02;17.70;99.90
37460;DHT22;23318;50.966;5.284;2023-05-21T07:40:28;17.90;99.90
37460;DHT22;23318;50.966;5.284;2023-05-21T07:42:54;18.00;99.90
37460;DHT22;23318;50.966;5.284;2023-05-21T07:45:20;18.30;99.90
37460;DHT22;23318;50.966;5.284;2023-05-21T07:47:46;18.40;99.90
37460;DHT22;23318;50.966;5.284;2023-05-21T07:50:12;18.20;99.90
37460;DHT22;23318;50.966;5.284;2023-05-21T07:52:38;17.90;99.90
37460;DHT22;23318;50.966;5.284;2023-05-21T07:55:04;17.80;99.90
37460;DHT22;23318;50.966;5.284;2023-05-21T07:57:30;17.70;99.90
37460;DHT22;23318;50.966;5.284;2023-05-21T07:59:56;18.00;99.90
37460;DHT22;23318;50.966;5.284;2023-05-21T08:02:22;18.40;99.90
37460;DHT22;23318;50.966;5.284;2023-05-21T08:04:47;18.70;99.90
37460;DHT22;23318;50.966;5.284;2023-05-21T08:07:13;18.60;99.90
37460;DHT22;23318;50.966;5.284;2023-05-21T08:09:41;18.70;99.90
37460;DHT22;23318;50.966;5.284;2023-05-21T08:12:07;18.80;99.90
37460;DHT22;23318;50.966;5.284;2023-05-21T08:14:32;18.80;99.90
37460;DHT22;23318;50.966;5.284;2023-05-21T08:16:58;18.60;99.90
37460;DHT22;23318;50.966;5.284;2023-05-21T08:19:24;18.40;99.90
37460;DHT22;23318;50.966;5.284;2023-05-21T08:21:49;18.20;99.90
37460;DHT22;23318;50.966;5.284;2023-05-21T08:24:15;17.90;99.90
37460;DHT22;23318;50.966;5.284;2023-05-21T08:26:41;17.50;99.90
37460;DHT22;23318;50.966;5.284;2023-05-21T08:29:09;17.80;99.90
37460;DHT22;23318;50.966;5.284;2023-05-21T08:31:34;18.10;99.90
37460;DHT22;23318;50.966;5.284;2023-05-21T08:34:00;18.20;99.90
37460;DHT22;23318;50.966;5.284;2023-05-21T08:36:25;18.20;99.90
37460;DHT22;23318;50.966;5.284;2023-05-21T08:38:51;18.30;99.90
37460;DHT22;23318;50.966;5.284;2023-05-21T08:41:17;18.50;99.90
37460;DHT22;23318;50.966;5.284;2023-05-21T08:43:46;18.80;99.90
37460;DHT22;23318;50.966;5.284;2023-05-21T08:46:12;18.80;99.90
37460;DHT22;23318;50.966;5.284;2023-05-21T08:48:38;18.90;99.90
37460;DHT22;23318;50.966;5.284;2023-05-21T08:51:05;19.30;99.90
37460;DHT22;23318;50.966;5.284;2023-05-21T08:53:32;19.50;99.90
37460;DHT22;23318;50.966;5.284;2023-05-21T08:55:59;19.50;99.90
37460;DHT22;23318;50.966;5.284;2023-05-21T08:58:26;19.60;99.90
37460;DHT22;23318;50.966;5.284;2023-05-21T09:00:53;19.90;99.90
37460;DHT22;23318;50.966;5.284;2023-05-21T09:03:19;20.00;99.90
37460;DHT22;23318;50.966;5.284;2023-05-21T09:05:46;20.00;99.90
37460;DHT22;23318;50.966;5.284;2023-05-21T09:08:18;20.10;99.90
37460;DHT22;23318;50.966;5.284;2023-05-21T09:10:50;20.00;99.90
37460;DHT22;23318;50.966;5.284;2023-05-21T09:13:16;19.90;99.90
37460;DHT22;23318;50.966;5.284;2023-05-21T09:15:46;20.10;99.90
37460;DHT22;23318;50.966;5.284;2023-05-21T09:18:12;20.20;99.90
37460;DHT22;23318;50.966;5.284;2023-05-21T09:20:38;20.00;99.90
37460;DHT22;23318;50.966;5.284;2023-05-21T09:23:06;19.90;99.90
37460;DHT22;23318;50.966;5.284;2023-05-21T09:25:37;19.90;99.90
37460;DHT22;23318;50.966;5.284;2023-05-21T09:28:03;19.80;99.90
37460;DHT22;23318;50.966;5.284;2023-05-21T09:30:29;20.00;99.90
37460;DHT22;23318;50.966;5.284;2023-05-21T09:32:58;20.50;99.90
37460;DHT22;23318;50.966;5.284;2023-05-21T09:35:24;20.70;99.90
37460;DHT22;23318;50.966;5.284;2023-05-21T09:37:52;20.40;99.90
37460;DHT22;23318;50.966;5.284;2023-05-21T09:40:20;20.20;99.90
37460;DHT22;23318;50.966;5.284;2023-05-21T09:42:51;20.40;99.90
37460;DHT22;23318;50.966;5.284;2023-05-21T09:45:20;20.60;99.90
37460;DHT22;23318;50.966;5.284;2023-05-21T09:47:47;20.50;99.90
37460;DHT22;23318;50.966;5.284;2023-05-21T09:50:20;20.60;99.90
37460;DHT22;23318;50.966;5.284;2023-05-21T09:52:47;20.30;99.90
37460;DHT22;23318;50.966;5.284;2023-05-21T09:55:15;20.70;99.90
37460;DHT22;23318;50.966;5.284;2023-05-21T09:57:46;20.80;99.90
37460;DHT22;23318;50.966;5.284;2023-05-21T10:00:22;20.90;99.90
37460;DHT22;23318;50.966;5.284;2023-05-21T10:03:10;21.30;99.90
37460;DHT22;23318;50.966;5.284;2023-05-21T10:05:36;21.50;99.90
37460;DHT22;23318;50.966;5.284;2023-05-21T10:08:03;21.40;99.90
37460;DHT22;23318;50.966;5.284;2023-05-21T10:10:30;21.50;99.90
37460;DHT22;23318;50.966;5.284;2023-05-21T10:13:08;21.60;99.90
37460;DHT22;23318;50.966;5.284;2023-05-21T10:15:37;21.80;99.90
37460;DHT22;23318;50.966;5.284;2023-05-21T10:18:05;21.80;99.90
37460;DHT22;23318;50.966;5.284;2023-05-21T10:20:33;21.90;99.90
37460;DHT22;23318;50.966;5.284;2023-05-21T10:22:59;22.20;99.90
37460;DHT22;23318;50.966;5.284;2023-05-21T10:25:26;22.30;99.90
37460;DHT22;23318;50.966;5.284;2023-05-21T10:27:54;22.10;99.90
37460;DHT22;23318;50.966;5.284;2023-05-21T10:30:20;22.60;99.90
37460;DHT22;23318;50.966;5.284;2023-05-21T10:32:47;22.80;99.80
37460;DHT22;23318;50.966;5.284;2023-05-21T10:35:15;22.80;99.70
37460;DHT22;23318;50.966;5.284;2023-05-21T10:37:43;22.60;99.80
37460;DHT22;23318;50.966;5.284;2023-05-21T10:40:09;22.50;99.90
37460;DHT22;23318;50.966;5.284;2023-05-21T10:50:46;23.90;98.40
37460;DHT22;23318;50.966;5.284;2023-05-21T11:01:01;25.80;96.20
37460;DHT22;23318;50.966;5.284;2023-05-21T11:03:27;26.30;96.30
37460;DHT22;23318;50.966;5.284;2023-05-21T11:05:55;26.40;96.00
37460;DHT22;23318;50.966;5.284;2023-05-21T11:08:28;27.10;95.60
37460;DHT22;23318;50.966;5.284;2023-05-21T11:11:01;27.30;95.30
37460;DHT22;23318;50.966;5.284;2023-05-21T11:13:28;27.80;95.00
37460;DHT22;23318;50.966;5.284;2023-05-21T11:21:06;27.90;94.40
37460;DHT22;23318;50.966;5.284;2023-05-21T11:29:12;28.20;94.60
37460;DHT22;23318;50.966;5.284;2023-05-21T11:31:37;28.60;93.90
37460;DHT22;23318;50.966;5.284;2023-05-21T11:34:23;27.90;94.20
37460;DHT22;23318;50.966;5.284;2023-05-21T11:39:40;27.80;94.20
37460;DHT22;23318;50.966;5.284;2023-05-21T11:42:06;27.80;94.30
37460;DHT22;23318;50.966;5.284;2023-05-21T11:44:38;27.20;94.70
37460;DHT22;23318;50.966;5.284;2023-05-21T11:47:06;26.80;94.70
37460;DHT22;23318;50.966;5.284;2023-05-21T11:49:33;27.90;94.50
37460;DHT22;23318;50.966;5.284;2023-05-21T11:51:59;29.70;93.30
37460;DHT22;23318;50.966;5.284;2023-05-21T11:54:29;30.00;93.00
37460;DHT22;23318;50.966;5.284;2023-05-21T11:56:59;28.60;93.40
37460;DHT22;23318;50.966;5.284;2023-05-21T11:59:26;27.90;93.90
37460;DHT22;23318;50.966;5.284;2023-05-21T12:01:51;28.20;93.60
37460;DHT22;23318;50.966;5.284;2023-05-21T12:04:18;29.50;93.20
37460;DHT22;23318;50.966;5.284;2023-05-21T12:06:43;30.50;92.50
37460;DHT22;23318;50.966;5.284;2023-05-21T12:09:28;29.70;92.60
37460;DHT22;23318;50.966;5.284;2023-05-21T12:11:54;28.40;93.50
37460;DHT22;23318;50.966;5.284;2023-05-21T12:14:20;27.60;93.70
37460;DHT22;23318;50.966;5.284;2023-05-21T12:16:47;27.80;93.90
37460;DHT22;23318;50.966;5.284;2023-05-21T12:19:16;27.10;94.10
37460;DHT22;23318;50.966;5.284;2023-05-21T12:21:42;27.20;94.20
37460;DHT22;23318;50.966;5.284;2023-05-21T12:24:09;28.00;93.80
37460;DHT22;23318;50.966;5.284;2023-05-21T12:26:35;28.20;93.60
37460;DHT22;23318;50.966;5.284;2023-05-21T12:29:03;28.00;93.70
37460;DHT22;23318;50.966;5.284;2023-05-21T12:31:30;28.30;94.00
37460;DHT22;23318;50.966;5.284;2023-05-21T12:33:57;28.40;93.80
37460;DHT22;23318;50.966;5.284;2023-05-21T12:36:26;28.20;93.70
37460;DHT22;23318;50.966;5.284;2023-05-21T12:38:52;27.60;94.10
37460;DHT22;23318;50.966;5.284;2023-05-21T12:41:18;27.00;94.60
37460;DHT22;23318;50.966;5.284;2023-05-21T12:43:45;27.20;94.50
37460;DHT22;23318;50.966;5.284;2023-05-21T12:46:11;27.80;94.10
37460;DHT22;23318;50.966;5.284;2023-05-21T12:48:39;28.50;93.60
37460;DHT22;23318;50.966;5.284;2023-05-21T12:51:07;29.20;93.30
37460;DHT22;23318;50.966;5.284;2023-05-21T12:53:36;29.10;93.30
37460;DHT22;23318;50.966;5.284;2023-05-21T12:56:13;30.10;92.80
37460;DHT22;23318;50.966;5.284;2023-05-21T12:58:42;30.00;92.70
37460;DHT22;23318;50.966;5.284;2023-05-21T13:01:14;31.00;92.50
37460;DHT22;23318;50.966;5.284;2023-05-21T13:03:43;29.40;92.60
37460;DHT22;23318;50.966;5.284;2023-05-21T13:06:09;28.90;93.00
37460;DHT22;23318;50.966;5.284;2023-05-21T13:08:35;30.00;92.60
37460;DHT22;23318;50.966;5.284;2023-05-21T13:11:02;32.50;91.70
37460;DHT22;23318;50.966;5.284;2023-05-21T13:13:28;33.70;90.80
37460;DHT22;23318;50.966;5.284;2023-05-21T13:15:54;33.20;90.40
37460;DHT22;23318;50.966;5.284;2023-05-21T13:18:20;33.30;90.30
37460;DHT22;23318;50.966;5.284;2023-05-21T13:20:47;33.70;89.60
37460;DHT22;23318;50.966;5.284;2023-05-21T13:23:14;32.90;89.80
37460;DHT22;23318;50.966;5.284;2023-05-21T13:25:40;32.00;90.10
37460;DHT22;23318;50.966;5.284;2023-05-21T13:28:06;32.00;90.10
37460;DHT22;23318;50.966;5.284;2023-05-21T13:30:35;33.30;89.70
37460;DHT22;23318;50.966;5.284;2023-05-21T13:33:01;33.90;88.00
37460;DHT22;23318;50.966;5.284;2023-05-21T13:35:27;33.80;87.20
37460;DHT22;23318;50.966;5.284;2023-05-21T13:37:53;33.00;86.80
37460;DHT22;23318;50.966;5.284;2023-05-21T13:40:19;31.70;88.80
37460;DHT22;23318;50.966;5.284;2023-05-21T13:42:46;31.50;89.30
37460;DHT22;23318;50.966;5.284;2023-05-21T13:45:15;31.90;89.30
37460;DHT22;23318;50.966;5.284;2023-05-21T13:47:41;32.50;89.00
37460;DHT22;23318;50.966;5.284;2023-05-21T13:50:08;33.40;87.80
37460;DHT22;23318;50.966;5.284;2023-05-21T13:52:34;32.90;87.10
37460;DHT22;23318;50.966;5.284;2023-05-21T13:55:00;32.30;87.60
37460;DHT22;23318;50.966;5.284;2023-05-21T13:57:25;31.80;87.90
37460;DHT22;23318;50.966;5.284;2023-05-21T13:59:55;31.70;88.10
37460;DHT22;23318;50.966;5.284;2023-05-21T14:02:21;31.90;88.70
37460;DHT22;23318;50.966;5.284;2023-05-21T14:04:47;32.30;88.20
37460;DHT22;23318;50.966;5.284;2023-05-21T14:07:13;32.10;88.50
37460;DHT22;23318;50.966;5.284;2023-05-21T14:09:39;31.80;88.80
37460;DHT22;23318;50.966;5.284;2023-05-21T14:12:05;31.60;88.80
37460;DHT22;23318;50.966;5.284;2023-05-21T14:14:30;31.80;88.80
37460;DHT22;23318;50.966;5.284;2023-05-21T14:16:56;32.60;87.40
37460;DHT22;23318;50.966;5.284;2023-05-21T14:19:22;32.50;87.50
37460;DHT22;23318;50.966;5.284;2023-05-21T14:21:50;31.90;87.70
37460;DHT22;23318;50.966;5.284;2023-05-21T14:24:16;32.90;87.10
37460;DHT22;23318;50.966;5.284;2023-05-21T14:26:42;33.40;86.80
37460;DHT22;23318;50.966;5.284;2023-05-21T14:29:08;33.30;86.70
37460;DHT22;23318;50.966;5.284;2023-05-21T14:31:35;33.30;86.10
37460;DHT22;23318;50.966;5.284;2023-05-21T14:34:00;33.30;86.30
37460;DHT22;23318;50.966;5.284;2023-05-21T14:36:27;33.90;86.20
37460;DHT22;23318;50.966;5.284;2023-05-21T14:38:53;34.50;85.40
37460;DHT22;23318;50.966;5.284;2023-05-21T14:41:18;34.90;85.50
37460;DHT22;23318;50.966;5.284;2023-05-21T14:43:46;34.60;84.60
37460;DHT22;23318;50.966;5.284;2023-05-21T14:46:11;34.10;85.10
37460;DHT22;23318;50.966;5.284;2023-05-21T14:48:37;32.10;85.50
37460;DHT22;23318;50.966;5.284;2023-05-21T14:51:03;32.50;86.80
37460;DHT22;23318;50.966;5.284;2023-05-21T14:53:28;32.80;85.80
37460;DHT22;23318;50.966;5.284;2023-05-21T14:55:54;32.70;85.90
37460;DHT22;23318;50.966;5.284;2023-05-21T14:58:20;33.30;85.10
37460;DHT22;23318;50.966;5.284;2023-05-21T15:00:45;33.10;86.00
37460;DHT22;23318;50.966;5.284;2023-05-21T15:03:11;32.40;86.20
37460;DHT22;23318;50.966;5.284;2023-05-21T15:05:37;31.80;86.40
37460;DHT22;23318;50.966;5.284;2023-05-21T15:08:03;31.50;86.70
37460;DHT22;23318;50.966;5.284;2023-05-21T15:10:30;31.40;87.10
37460;DHT22;23318;50.966;5.284;2023-05-21T15:12:56;31.50;87.00
37460;DHT22;23318;50.966;5.284;2023-05-21T15:15:21;32.00;87.00
37460;DHT22;23318;50.966;5.284;2023-05-21T15:17:48;32.40;87.00
37460;DHT22;23318;50.966;5.284;2023-05-21T15:20:14;33.20;86.60
37460;DHT22;23318;50.966;5.284;2023-05-21T15:22:40;31.60;86.50
37460;DHT22;23318;50.966;5.284;2023-05-21T15:25:06;31.10;87.60
37460;DHT22;23318;50.966;5.284;2023-05-21T15:27:33;30.10;88.20
37460;DHT22;23318;50.966;5.284;2023-05-21T15:29:58;29.80;90.10
37460;DHT22;23318;50.966;5.284;2023-05-21T15:32:24;31.30;89.60
37460;DHT22;23318;50.966;5.284;2023-05-21T15:34:50;32.50;88.10
37460;DHT22;23318;50.966;5.284;2023-05-21T15:37:16;32.70;87.10
37460;DHT22;23318;50.966;5.284;2023-05-21T15:39:43;32.30;86.80
37460;DHT22;23318;50.966;5.284;2023-05-21T15:42:10;32.10;87.30
37460;DHT22;23318;50.966;5.284;2023-05-21T15:44:36;33.40;87.20
37460;DHT22;23318;50.966;5.284;2023-05-21T15:47:02;33.50;86.30
37460;DHT22;23318;50.966;5.284;2023-05-21T15:49:28;33.40;86.00
37460;DHT22;23318;50.966;5.284;2023-05-21T15:51:53;32.80;85.70
37460;DHT22;23318;50.966;5.284;2023-05-21T15:54:21;32.30;86.40
37460;DHT22;23318;50.966;5.284;2023-05-21T15:56:48;31.30;87.00